createdAt,value
2023-03-16T00:00:47.488Z,98594.84
2023-03-16T00:01:47.510Z,98595.99
2023-03-16T00:02:47.557Z,98595.95
2023-03-16T00:03:47.607Z,98598.61
2023-03-16T00:04:47.638Z,98601.12
2023-03-16T00:05:47.695Z,98592.21
2023-03-16T00:06:47.723Z,98600.38
2023-03-16T00:07:47.747Z,98590.03
2023-03-16T00:08:47.794Z,98588.16
2023-03-16T00:09:47.846Z,98584.26
2023-03-16T00:10:47.856Z,98588.30
2023-03-16T00:11:47.934Z,98586.08
2023-03-16T00:12:47.955Z,98587.08
2023-03-16T00:13:47.994Z,98583.95
2023-03-16T00:14:48.059Z,98585.43
2023-03-16T00:15:48.070Z,98592.81
2023-03-16T00:16:48.142Z,98594.87
2023-03-16T00:17:48.076Z,98594.15
2023-03-16T00:18:48.186Z,98595.75
2023-03-16T00:19:48.138Z,98593.55
2023-03-16T00:20:48.145Z,98597.95
2023-03-16T00:21:48.167Z,98595.47
2023-03-16T00:22:48.181Z,98596.40
2023-03-16T00:23:48.225Z,98598.17
2023-03-16T00:24:48.258Z,98597.45
2023-03-16T00:25:48.284Z,98589.34
2023-03-16T00:26:48.289Z,98597.34
2023-03-16T00:27:48.301Z,98593.00
2023-03-16T00:28:48.304Z,98592.64
2023-03-16T00:29:48.331Z,98594.94
2023-03-16T00:30:48.362Z,98592.31
2023-03-16T00:31:48.438Z,98586.30
2023-03-16T00:32:48.452Z,98590.12
2023-03-16T00:33:48.478Z,98590.98
2023-03-16T00:34:48.586Z,98593.22
2023-03-16T00:35:48.628Z,98594.70
2023-03-16T00:36:48.648Z,98594.15
2023-03-16T00:37:48.719Z,98594.87
2023-03-16T00:38:48.726Z,98596.69
2023-03-16T00:39:48.745Z,98596.04
2023-03-16T00:40:48.804Z,98596.88
2023-03-16T00:41:48.845Z,98601.38
2023-03-16T00:42:48.877Z,98604.66
2023-03-16T00:43:48.982Z,98600.91
2023-03-16T00:44:48.906Z,98599.23
2023-03-16T00:45:48.994Z,98597.22
2023-03-16T00:46:49.272Z,98604.88
2023-03-16T00:47:49.085Z,98597.05
2023-03-16T00:48:49.098Z,98599.92
2023-03-16T00:49:49.105Z,98598.10
2023-03-16T00:50:49.223Z,98596.57
2023-03-16T00:51:49.179Z,98599.63
2023-03-16T00:52:49.373Z,98602.80
2023-03-16T00:53:49.272Z,98592.33
2023-03-16T00:54:49.292Z,98603.68
2023-03-16T00:55:49.350Z,98592.64
2023-03-16T00:56:49.361Z,98601.69
2023-03-16T00:57:49.393Z,98599.88
2023-03-16T00:58:49.427Z,98600.52
2023-03-16T00:59:49.591Z,98599.85
2023-03-16T01:00:49.554Z,98597.20
2023-03-16T01:01:49.621Z,98594.34
2023-03-16T01:02:49.534Z,98593.86
2023-03-16T01:03:49.542Z,98596.45
2023-03-16T01:04:49.553Z,98598.46
2023-03-16T01:05:49.595Z,98596.16
2023-03-16T01:06:49.613Z,98600.64
2023-03-16T01:07:49.884Z,98602.53
2023-03-16T01:08:49.720Z,98596.16
2023-03-16T01:09:49.765Z,98603.73
2023-03-16T01:10:49.777Z,98596.42
2023-03-16T01:11:49.802Z,98599.13
2023-03-16T01:12:49.818Z,98605.94
2023-03-16T01:13:49.829Z,98605.81
2023-03-16T01:14:49.878Z,98604.56
2023-03-16T01:15:49.901Z,98600.02
2023-03-16T01:16:49.981Z,98599.97
2023-03-16T01:17:50.036Z,98596.05
2023-03-16T01:18:50.092Z,98595.69
2023-03-16T01:19:50.094Z,98594.89
2023-03-16T01:20:50.121Z,98604.83
2023-03-16T01:21:50.130Z,98600.38
2023-03-16T01:22:50.142Z,98597.31
2023-03-16T01:23:50.173Z,98596.40
2023-03-16T01:24:50.173Z,98590.47
2023-03-16T01:25:54.722Z,98594.25
2023-03-16T01:26:50.275Z,98593.36
2023-03-16T01:27:50.311Z,98587.56
2023-03-16T01:28:50.329Z,98599.93
2023-03-16T01:29:50.442Z,98589.20
2023-03-16T01:30:50.361Z,98595.22
2023-03-16T01:31:50.413Z,98596.19
2023-03-16T01:32:50.509Z,98597.55
2023-03-16T01:33:50.444Z,98594.83
2023-03-16T01:34:50.495Z,98592.45
2023-03-16T01:35:50.576Z,98587.50
2023-03-16T01:36:50.590Z,98591.35
2023-03-16T01:37:50.782Z,98587.72
2023-03-16T01:38:50.602Z,98590.02
2023-03-16T01:39:50.621Z,98589.22
2023-03-16T01:40:50.650Z,98583.74
2023-03-16T01:41:50.694Z,98584.77
2023-03-16T01:42:50.703Z,98580.30
2023-03-16T01:43:50.724Z,98580.87
2023-03-16T01:44:50.730Z,98580.65
2023-03-16T01:45:50.828Z,98586.27
2023-03-16T01:46:50.842Z,98579.21
2023-03-16T01:47:50.860Z,98579.41
2023-03-16T01:48:50.862Z,98579.05
2023-03-16T01:49:50.889Z,98570.91
2023-03-16T01:50:50.890Z,98573.04
2023-03-16T01:51:50.928Z,98571.80
2023-03-16T01:52:50.940Z,98568.03
2023-03-16T01:53:50.961Z,98567.84
2023-03-16T01:54:50.969Z,98566.98
2023-03-16T01:55:51.982Z,98574.31
2023-03-16T01:56:51.060Z,98575.77
2023-03-16T01:57:51.086Z,98576.00
2023-03-16T01:58:51.099Z,98572.75
2023-03-16T01:59:51.139Z,98573.45
2023-03-16T02:00:51.157Z,98574.26
2023-03-16T02:01:51.219Z,98578.19
2023-03-16T02:02:51.168Z,98568.49
2023-03-16T02:03:51.201Z,98569.81
2023-03-16T02:04:51.169Z,98571.22
2023-03-16T02:05:51.199Z,98566.20
2023-03-16T02:06:51.225Z,98570.48
2023-03-16T02:07:51.248Z,98564.28
2023-03-16T02:08:51.258Z,98562.47
2023-03-16T02:09:51.276Z,98565.48
2023-03-16T02:10:51.298Z,98566.44
2023-03-16T02:11:51.328Z,98568.59
2023-03-16T02:12:51.342Z,98567.47
2023-03-16T02:13:51.368Z,98564.16
2023-03-16T02:14:51.393Z,98565.89
2023-03-16T02:15:51.551Z,98571.75
2023-03-16T02:16:51.558Z,98569.61
2023-03-16T02:17:51.580Z,98574.64
2023-03-16T02:18:51.578Z,98573.19
2023-03-16T02:19:51.650Z,98565.86
2023-03-16T02:20:51.668Z,98574.40
2023-03-16T02:21:51.679Z,98573.39
2023-03-16T02:22:51.689Z,98573.23
2023-03-16T02:23:51.719Z,98574.57
2023-03-16T02:24:51.737Z,98568.92
2023-03-16T02:25:51.784Z,98570.59
2023-03-16T02:26:51.792Z,98564.19
2023-03-16T02:27:51.817Z,98564.50
2023-03-16T02:28:51.852Z,98563.34
2023-03-16T02:29:51.860Z,98558.95
2023-03-16T02:30:51.934Z,98554.11
2023-03-16T02:31:51.948Z,98560.00
2023-03-16T02:32:51.975Z,98560.33
2023-03-16T02:33:51.988Z,98563.20
2023-03-16T02:34:52.004Z,98556.81
2023-03-16T02:35:52.069Z,98557.70
2023-03-16T02:36:52.124Z,98554.38
2023-03-16T02:37:52.157Z,98551.27
2023-03-16T02:38:52.147Z,98558.48
2023-03-16T02:39:52.170Z,98554.61
2023-03-16T02:40:52.186Z,98551.95
2023-03-16T02:41:52.208Z,98551.77
2023-03-16T02:42:52.228Z,98544.77
2023-03-16T02:43:52.256Z,98547.12
2023-03-16T02:44:52.257Z,98538.81
2023-03-16T02:45:52.326Z,98537.12
2023-03-16T02:46:52.448Z,98543.00
2023-03-16T02:47:52.386Z,98545.87
2023-03-16T02:48:52.416Z,98548.88
2023-03-16T02:49:52.439Z,98546.27
2023-03-16T02:50:52.486Z,98546.61
2023-03-16T02:51:52.514Z,98547.59
2023-03-16T02:52:52.526Z,98549.38
2023-03-16T02:53:52.544Z,98546.56
2023-03-16T02:54:52.557Z,98548.09
2023-03-16T02:55:52.588Z,98538.69
2023-03-16T02:56:52.604Z,98545.22
2023-03-16T02:57:52.626Z,98541.73
2023-03-16T02:58:52.631Z,98543.64
2023-03-16T02:59:52.671Z,98552.16
2023-03-16T03:00:52.698Z,98545.27
2023-03-16T03:01:52.722Z,98546.66
2023-03-16T03:02:52.837Z,98548.19
2023-03-16T03:03:52.794Z,98545.19
2023-03-16T03:04:52.824Z,98546.67
2023-03-16T03:05:52.883Z,98547.20
2023-03-16T03:06:52.914Z,98548.54
2023-03-16T03:07:52.984Z,98543.44
2023-03-16T03:08:53.013Z,98546.01
2023-03-16T03:09:53.041Z,98545.53
2023-03-16T03:10:53.076Z,98538.23
2023-03-16T03:11:53.119Z,98542.82
2023-03-16T03:12:53.134Z,98540.08
2023-03-16T03:13:53.178Z,98543.42
2023-03-16T03:14:53.189Z,98536.72
2023-03-16T03:15:53.372Z,98539.11
2023-03-16T03:16:53.265Z,98535.05
2023-03-16T03:17:53.301Z,98546.77
2023-03-16T03:18:53.333Z,98540.31
2023-03-16T03:19:53.370Z,98547.16
2023-03-16T03:20:53.412Z,98537.56
2023-03-16T03:21:53.442Z,98534.91
2023-03-16T03:22:53.462Z,98536.09
2023-03-16T03:23:53.492Z,98542.15
2023-03-16T03:24:53.516Z,98540.38
2023-03-16T03:25:53.563Z,98537.55
2023-03-16T03:26:53.592Z,98537.60
2023-03-16T03:27:53.680Z,98540.73
2023-03-16T03:28:53.612Z,98532.67
2023-03-16T03:29:53.646Z,98533.84
2023-03-16T03:30:53.669Z,98537.05
2023-03-16T03:31:53.733Z,98533.36
2023-03-16T03:32:53.726Z,98538.75
2023-03-16T03:33:53.741Z,98543.25
2023-03-16T03:34:53.800Z,98535.59
2023-03-16T03:35:53.863Z,98541.59
2023-03-16T03:36:53.872Z,98534.61
2023-03-16T03:37:53.909Z,98527.62
2023-03-16T03:38:53.923Z,98526.83
2023-03-16T03:39:53.963Z,98529.31
2023-03-16T03:40:53.992Z,98525.34
2023-03-16T03:41:54.030Z,98526.47
2023-03-16T03:42:54.056Z,98524.46
2023-03-16T03:43:54.079Z,98524.41
2023-03-16T03:44:54.105Z,98515.37
2023-03-16T03:45:54.371Z,98519.77
2023-03-16T03:46:54.221Z,98517.92
2023-03-16T03:47:54.183Z,98517.97
2023-03-16T03:48:54.211Z,98516.68
2023-03-16T03:49:54.242Z,98517.42
2023-03-16T03:50:54.283Z,98517.83
2023-03-16T03:51:54.310Z,98514.12
2023-03-16T03:52:54.325Z,98523.50
2023-03-16T03:53:54.370Z,98520.84
2023-03-16T03:54:54.793Z,98523.66
2023-03-16T03:55:54.434Z,98525.36
2023-03-16T03:56:54.440Z,98521.16
2023-03-16T03:57:54.467Z,98517.83
2023-03-16T03:58:54.482Z,98516.34
2023-03-16T03:59:54.513Z,98517.99
2023-03-16T04:00:54.601Z,98520.58
2023-03-16T04:01:54.573Z,98513.23
2023-03-16T04:02:54.792Z,98512.61
2023-03-16T04:03:54.680Z,98508.26
2023-03-16T04:04:54.697Z,98510.98
2023-03-16T04:05:54.739Z,98510.69
2023-03-16T04:06:54.769Z,98509.05
2023-03-16T04:07:54.829Z,98515.72
2023-03-16T04:08:54.863Z,98513.25
2023-03-16T04:09:54.914Z,98512.60
2023-03-16T04:10:54.946Z,98512.10
2023-03-16T04:11:54.976Z,98507.94
2023-03-16T04:12:54.987Z,98502.09
2023-03-16T04:13:55.018Z,98502.77
2023-03-16T04:14:55.049Z,98507.66
2023-03-16T04:15:55.138Z,98495.47
2023-03-16T04:16:55.086Z,98496.91
2023-03-16T04:17:55.117Z,98498.80
2023-03-16T04:18:55.164Z,98502.02
2023-03-16T04:19:55.180Z,98499.32
2023-03-16T04:20:55.206Z,98500.47
2023-03-16T04:21:55.255Z,98493.51
2023-03-16T04:22:55.246Z,98498.50
2023-03-16T04:23:55.295Z,98498.38
2023-03-16T04:24:55.318Z,98497.41
2023-03-16T04:25:55.353Z,98500.19
2023-03-16T04:26:55.370Z,98494.06
2023-03-16T04:27:55.405Z,98499.72
2023-03-16T04:28:55.443Z,98495.04
2023-03-16T04:29:55.478Z,98497.67
2023-03-16T04:30:55.547Z,98496.02
2023-03-16T04:31:55.565Z,98493.36
2023-03-16T04:32:55.688Z,98488.05
2023-03-16T04:33:55.693Z,98489.92
2023-03-16T04:34:55.730Z,98485.86
2023-03-16T04:35:55.832Z,98483.48
2023-03-16T04:36:55.777Z,98487.34
2023-03-16T04:37:55.806Z,98487.31
2023-03-16T04:38:55.815Z,98489.38
2023-03-16T04:39:55.847Z,98486.86
2023-03-16T04:40:55.878Z,98489.52
2023-03-16T04:41:55.911Z,98479.34
2023-03-16T04:42:55.937Z,98491.19
2023-03-16T04:43:55.955Z,98493.86
2023-03-16T04:44:55.976Z,98492.12
2023-03-16T04:45:56.050Z,98492.29
2023-03-16T04:46:56.036Z,98486.02
2023-03-16T04:47:56.075Z,98489.17
2023-03-16T04:48:56.097Z,98490.96
2023-03-16T04:49:56.115Z,98484.48
2023-03-16T04:50:56.145Z,98491.66
2023-03-16T04:51:56.188Z,98482.23
2023-03-16T04:52:56.219Z,98489.44
2023-03-16T04:53:56.241Z,98490.58
2023-03-16T04:54:56.290Z,98488.77
2023-03-16T04:55:56.308Z,98489.12
2023-03-16T04:56:56.342Z,98486.42
2023-03-16T04:57:56.377Z,98484.89
2023-03-16T04:58:56.411Z,98485.41
2023-03-16T04:59:56.454Z,98491.18
2023-03-16T05:00:56.496Z,98479.61
2023-03-16T05:01:56.567Z,98483.48
2023-03-16T05:02:56.613Z,98483.38
2023-03-16T05:03:58.631Z,98485.03
2023-03-16T05:04:56.751Z,98480.68
2023-03-16T05:05:56.878Z,98486.13
2023-03-16T05:06:56.835Z,98486.68
2023-03-16T05:07:56.883Z,98483.70
2023-03-16T05:08:56.901Z,98480.98
2023-03-16T05:09:56.962Z,98481.44
2023-03-16T05:10:56.986Z,98490.05
2023-03-16T05:11:57.032Z,98487.53
2023-03-16T05:12:57.088Z,98488.36
2023-03-16T05:13:57.125Z,98482.92
2023-03-16T05:14:57.173Z,98484.58
2023-03-16T05:15:57.272Z,98477.98
2023-03-16T05:16:57.224Z,98476.76
2023-03-16T05:17:57.246Z,98477.95
2023-03-16T05:18:57.277Z,98480.41
2023-03-16T05:19:57.302Z,98481.90
2023-03-16T05:20:57.363Z,98475.44
2023-03-16T05:21:57.422Z,98482.47
2023-03-16T05:22:57.342Z,98486.23
2023-03-16T05:23:57.389Z,98482.95
2023-03-16T05:24:57.430Z,98478.62
2023-03-16T05:25:57.453Z,98478.45
2023-03-16T05:26:57.539Z,98480.41
2023-03-16T05:27:57.595Z,98480.61
2023-03-16T05:28:57.620Z,98481.28
2023-03-16T05:29:57.662Z,98478.22
2023-03-16T05:30:57.720Z,98479.62
2023-03-16T05:31:57.765Z,98481.05
2023-03-16T05:32:57.863Z,98481.48
2023-03-16T05:33:57.866Z,98478.61
2023-03-16T05:34:57.891Z,98483.81
2023-03-16T05:35:57.942Z,98482.04
2023-03-16T05:36:57.992Z,98477.14
2023-03-16T05:37:58.029Z,98475.84
2023-03-16T05:38:58.066Z,98474.48
2023-03-16T05:39:58.113Z,98475.84
2023-03-16T05:40:58.151Z,98476.22
2023-03-16T05:41:58.159Z,98478.92
2023-03-16T05:42:58.224Z,98473.45
2023-03-16T05:43:58.233Z,98477.89
2023-03-16T05:44:58.242Z,98474.73
2023-03-16T05:45:58.273Z,98476.29
2023-03-16T05:46:58.325Z,98476.84
2023-03-16T05:47:58.344Z,98482.81
2023-03-16T05:48:58.362Z,98476.67
2023-03-16T05:49:58.364Z,98481.84
2023-03-16T05:50:58.428Z,98479.28
2023-03-16T05:51:58.454Z,98481.23
2023-03-16T05:52:58.481Z,98479.47
2023-03-16T05:53:58.510Z,98482.61
2023-03-16T05:54:58.523Z,98478.50
2023-03-16T05:55:58.541Z,98481.85
2023-03-16T05:56:58.562Z,98475.78
2023-03-16T05:57:58.612Z,98472.80
2023-03-16T05:58:58.624Z,98479.04
2023-03-16T05:59:58.653Z,98479.02
2023-03-16T06:00:58.682Z,98478.27
2023-03-16T06:01:58.724Z,98479.84
2023-03-16T06:02:58.778Z,98480.20
2023-03-16T06:03:58.866Z,98480.38
2023-03-16T06:04:58.812Z,98479.69
2023-03-16T06:05:58.831Z,98479.02
2023-03-16T06:06:58.857Z,98481.00
2023-03-16T06:07:58.873Z,98478.06
2023-03-16T06:08:58.892Z,98472.05
2023-03-16T06:09:58.913Z,98473.03
2023-03-16T06:10:58.959Z,98470.45
2023-03-16T06:11:58.979Z,98475.67
2023-03-16T06:12:59.955Z,98470.59
2023-03-16T06:13:58.990Z,98481.11
2023-03-16T06:14:59.020Z,98478.38
2023-03-16T06:15:59.105Z,98474.42
2023-03-16T06:16:59.121Z,98475.59
2023-03-16T06:17:59.154Z,98479.47
2023-03-16T06:18:59.938Z,98481.12
2023-03-16T06:19:59.222Z,98479.32
2023-03-16T06:20:59.316Z,98471.16
2023-03-16T06:21:59.382Z,98476.63
2023-03-16T06:22:59.334Z,98475.44
2023-03-16T06:23:59.330Z,98479.28
2023-03-16T06:24:59.351Z,98477.77
2023-03-16T06:25:59.402Z,98472.25
2023-03-16T06:26:59.397Z,98474.98
2023-03-16T06:27:59.450Z,98474.66
2023-03-16T06:28:59.439Z,98478.81
2023-03-16T06:29:59.474Z,98469.55
2023-03-16T06:30:59.516Z,98473.76
2023-03-16T06:31:59.540Z,98473.77
2023-03-16T06:32:59.591Z,98475.33
2023-03-16T06:33:59.579Z,98475.98
2023-03-16T06:34:59.619Z,98479.38
2023-03-16T06:35:59.685Z,98472.88
2023-03-16T06:36:59.714Z,98469.88
2023-03-16T06:37:59.710Z,98464.94
2023-03-16T06:38:59.724Z,98472.78
2023-03-16T06:39:59.740Z,98465.55
2023-03-16T06:40:59.829Z,98468.61
2023-03-16T06:41:59.861Z,98472.67
2023-03-16T06:42:59.865Z,98464.75
2023-03-16T06:43:59.874Z,98473.03
2023-03-16T06:44:59.859Z,98473.16
2023-03-16T06:45:59.918Z,98472.81
2023-03-16T06:46:59.929Z,98472.27
2023-03-16T06:47:59.930Z,98473.45
2023-03-16T06:48:59.931Z,98468.94
2023-03-16T06:49:59.952Z,98467.62
2023-03-16T06:50:59.939Z,98466.52
2023-03-16T06:51:59.940Z,98467.98
2023-03-16T06:52:59.943Z,98473.21
2023-03-16T06:53:59.940Z,98469.11
2023-03-16T06:54:59.950Z,98474.09
2023-03-16T06:55:59.973Z,98467.16
2023-03-16T06:56:59.951Z,98463.95
2023-03-16T06:58:00.102Z,98468.31
2023-03-16T06:58:59.991Z,98462.70
2023-03-16T07:00:00.008Z,98457.47
2023-03-16T07:01:00.073Z,98466.59
2023-03-16T07:02:00.112Z,98465.17
2023-03-16T07:03:00.603Z,98469.92
2023-03-16T07:04:00.203Z,98464.63
2023-03-16T07:05:00.175Z,98465.98
2023-03-16T07:06:00.217Z,98467.34
2023-03-16T07:07:00.236Z,98469.28
2023-03-16T07:08:00.247Z,98465.73
2023-03-16T07:09:00.236Z,98462.48
2023-03-16T07:10:00.384Z,98465.59
2023-03-16T07:11:00.389Z,98467.81
2023-03-16T07:12:00.444Z,98469.92
2023-03-16T07:13:00.487Z,98470.34
2023-03-16T07:14:00.508Z,98464.86
2023-03-16T07:15:00.579Z,98471.25
2023-03-16T07:16:00.595Z,98467.53
2023-03-16T07:17:00.681Z,98467.28
2023-03-16T07:18:00.612Z,98467.45
2023-03-16T07:19:00.652Z,98464.41
2023-03-16T07:20:00.674Z,98468.34
2023-03-16T07:21:00.698Z,98467.42
2023-03-16T07:22:00.707Z,98467.17
2023-03-16T07:23:00.713Z,98468.86
2023-03-16T07:24:00.731Z,98472.12
2023-03-16T07:25:00.750Z,98476.72
2023-03-16T07:26:00.802Z,98470.64
2023-03-16T07:27:00.863Z,98470.47
2023-03-16T07:28:00.879Z,98477.70
2023-03-16T07:29:00.926Z,98476.80
2023-03-16T07:30:00.964Z,98476.59
2023-03-16T07:31:04.032Z,98473.70
2023-03-16T07:32:01.042Z,98469.97
2023-03-16T07:33:01.014Z,98473.63
2023-03-16T07:34:01.051Z,98472.55
2023-03-16T07:35:01.076Z,98475.30
2023-03-16T07:36:01.184Z,98475.73
2023-03-16T07:37:01.093Z,98463.73
2023-03-16T07:38:01.110Z,98469.41
2023-03-16T07:39:01.134Z,98470.12
2023-03-16T07:40:01.141Z,98466.40
2023-03-16T07:41:01.175Z,98476.58
2023-03-16T07:42:01.195Z,98471.30
2023-03-16T07:43:01.190Z,98470.72
2023-03-16T07:44:01.220Z,98472.00
2023-03-16T07:45:01.238Z,98470.85
2023-03-16T07:46:01.299Z,98478.84
2023-03-16T07:47:01.310Z,98474.94
2023-03-16T07:48:01.327Z,98477.38
2023-03-16T07:49:01.374Z,98472.12
2023-03-16T07:50:01.432Z,98471.65
2023-03-16T07:51:01.418Z,98467.31
2023-03-16T07:52:01.464Z,98466.94
2023-03-16T07:53:01.469Z,98470.39
2023-03-16T07:54:01.508Z,98469.61
2023-03-16T07:55:01.526Z,98467.35
2023-03-16T07:56:01.541Z,98467.75
2023-03-16T07:57:01.578Z,98470.69
2023-03-16T07:58:01.593Z,98469.27
2023-03-16T07:59:01.628Z,98464.77
2023-03-16T08:00:01.661Z,98464.42
2023-03-16T08:01:01.721Z,98465.59
2023-03-16T08:02:01.749Z,98468.11
2023-03-16T08:03:01.787Z,98471.17
2023-03-16T08:04:01.851Z,98471.83
2023-03-16T08:05:01.799Z,98468.12
2023-03-16T08:06:01.827Z,98470.61
2023-03-16T08:07:01.828Z,98463.88
2023-03-16T08:08:01.970Z,98472.31
2023-03-16T08:09:01.910Z,98473.70
2023-03-16T08:10:01.907Z,98465.47
2023-03-16T08:11:01.927Z,98465.20
2023-03-16T08:12:01.958Z,98465.03
2023-03-16T08:13:02.067Z,98471.52
2023-03-16T08:14:01.979Z,98472.86
2023-03-16T08:15:01.990Z,98469.89
2023-03-16T08:16:02.225Z,98467.86
2023-03-16T08:17:02.084Z,98465.36
2023-03-16T08:18:02.122Z,98462.62
2023-03-16T08:19:02.172Z,98464.84
2023-03-16T08:20:02.200Z,98465.88
2023-03-16T08:21:02.236Z,98464.55
2023-03-16T08:22:02.357Z,98470.12
2023-03-16T08:23:02.305Z,98471.53
2023-03-16T08:24:02.309Z,98460.00
2023-03-16T08:25:02.331Z,98461.91
2023-03-16T08:26:02.363Z,98462.07
2023-03-16T08:27:02.372Z,98458.30
2023-03-16T08:28:02.403Z,98457.55
2023-03-16T08:29:02.653Z,98464.53
2023-03-16T08:30:02.521Z,98466.25
2023-03-16T08:31:02.592Z,98462.72
2023-03-16T08:32:02.549Z,98458.78
2023-03-16T08:33:02.637Z,98465.87
2023-03-16T08:34:02.589Z,98465.75
2023-03-16T08:35:02.625Z,98461.64
2023-03-16T08:36:02.664Z,98464.10
2023-03-16T08:37:02.713Z,98463.75
2023-03-16T08:38:02.742Z,98467.89
2023-03-16T08:39:07.359Z,98461.69
2023-03-16T08:40:02.748Z,98458.46
2023-03-16T08:41:02.781Z,98456.05
2023-03-16T08:42:02.805Z,98456.88
2023-03-16T08:43:02.878Z,98462.08
2023-03-16T08:44:02.910Z,98458.09
2023-03-16T08:45:02.944Z,98454.84
2023-03-16T08:46:03.042Z,98456.16
2023-03-16T08:47:02.968Z,98460.03
2023-03-16T08:48:03.008Z,98458.70
2023-03-16T08:49:03.020Z,98459.97
2023-03-16T08:50:03.042Z,98456.33
2023-03-16T08:51:03.068Z,98457.73
2023-03-16T08:52:03.093Z,98459.95
2023-03-16T08:53:03.096Z,98456.09
2023-03-16T08:54:03.138Z,98458.16
2023-03-16T08:55:04.161Z,98458.04
2023-03-16T08:56:03.228Z,98456.16
2023-03-16T08:57:03.259Z,98449.88
2023-03-16T08:58:03.300Z,98456.34
2023-03-16T08:59:03.318Z,98456.90
2023-03-16T09:00:03.350Z,98455.72
2023-03-16T09:01:03.377Z,98450.63
2023-03-16T09:02:03.455Z,98450.80
2023-03-16T09:03:03.467Z,98448.09
2023-03-16T09:04:03.559Z,98445.77
2023-03-16T09:05:03.599Z,98444.48
2023-03-16T09:06:03.601Z,98448.16
2023-03-16T09:07:09.004Z,98447.91
2023-03-16T09:08:03.714Z,98443.70
2023-03-16T09:09:03.717Z,98444.69
2023-03-16T09:10:03.746Z,98437.66
2023-03-16T09:11:03.776Z,98443.22
2023-03-16T09:12:03.776Z,98430.27
2023-03-16T09:13:03.804Z,98431.88
2023-03-16T09:14:03.815Z,98431.45
2023-03-16T09:15:03.850Z,98422.78
2023-03-16T09:16:03.903Z,98435.90
2023-03-16T09:17:04.327Z,98426.50
2023-03-16T09:18:03.970Z,98427.30
2023-03-16T09:19:03.989Z,98425.23
2023-03-16T09:20:15.366Z,98420.73
2023-03-16T09:21:04.050Z,98425.77
2023-03-16T09:22:04.076Z,98426.94
2023-03-16T09:23:04.116Z,98425.16
2023-03-16T09:24:04.107Z,98426.75
2023-03-16T09:25:04.134Z,98427.06
2023-03-16T09:26:04.346Z,98420.20
2023-03-16T09:27:04.173Z,98421.27
2023-03-16T09:28:04.115Z,98414.66
2023-03-16T09:29:04.166Z,98419.30
2023-03-16T09:30:04.206Z,98417.44
2023-03-16T09:31:04.329Z,98420.12
2023-03-16T09:32:04.365Z,98431.00
2023-03-16T09:33:04.533Z,98421.03
2023-03-16T09:34:04.436Z,98420.22
2023-03-16T09:35:04.509Z,98425.75
2023-03-16T09:36:04.570Z,98428.88
2023-03-16T09:37:04.643Z,98417.66
2023-03-16T09:38:06.472Z,98422.50
2023-03-16T09:39:04.713Z,98416.28
2023-03-16T09:40:10.395Z,98409.54
2023-03-16T09:41:04.696Z,98418.59
2023-03-16T09:42:04.777Z,98414.24
2023-03-16T09:43:04.882Z,98406.62
2023-03-16T09:44:04.826Z,98411.83
2023-03-16T09:45:04.877Z,98412.33
2023-03-16T09:46:04.957Z,98420.34
2023-03-16T09:47:05.015Z,98416.06
2023-03-16T09:48:05.119Z,98422.36
2023-03-16T09:49:05.203Z,98414.67
2023-03-16T09:50:05.335Z,98416.73
2023-03-16T09:51:05.598Z,98409.98
2023-03-16T09:52:05.366Z,98412.53
2023-03-16T09:53:05.369Z,98411.78
2023-03-16T09:54:05.425Z,98402.69
2023-03-16T09:55:05.486Z,98406.12
2023-03-16T09:56:05.599Z,98404.84
2023-03-16T09:57:05.538Z,98399.42
2023-03-16T09:58:05.599Z,98397.81
2023-03-16T09:59:07.029Z,98388.88
2023-03-16T10:00:05.654Z,98393.83
2023-03-16T10:01:05.807Z,98390.09
2023-03-16T10:02:05.823Z,98387.55
2023-03-16T10:03:05.802Z,98382.19
2023-03-16T10:04:05.962Z,98385.59
2023-03-16T10:05:05.908Z,98386.28
2023-03-16T10:06:05.979Z,98379.52
2023-03-16T10:07:05.946Z,98383.10
2023-03-16T10:08:06.031Z,98376.41
2023-03-16T10:09:05.983Z,98371.48
2023-03-16T10:10:06.063Z,98372.37
2023-03-16T10:11:06.105Z,98372.05
2023-03-16T10:12:06.156Z,98370.81
2023-03-16T10:13:06.244Z,98368.48
2023-03-16T10:14:06.296Z,98376.38
2023-03-16T10:15:06.470Z,98371.69
2023-03-16T10:16:06.419Z,98374.45
2023-03-16T10:17:06.385Z,98367.70
2023-03-16T10:18:06.517Z,98363.01
2023-03-16T10:19:06.475Z,98360.87
2023-03-16T10:20:06.536Z,98368.14
2023-03-16T10:21:06.595Z,98360.89
2023-03-16T10:22:06.670Z,98362.72
2023-03-16T10:23:06.773Z,98365.56
2023-03-16T10:24:06.748Z,98361.84
2023-03-16T10:25:06.822Z,98363.91
2023-03-16T10:26:07.001Z,98362.12
2023-03-16T10:27:06.836Z,98360.75
2023-03-16T10:28:06.916Z,98353.13
2023-03-16T10:29:06.905Z,98360.47
2023-03-16T10:30:07.008Z,98357.45
2023-03-16T10:31:07.043Z,98357.22
2023-03-16T10:32:07.140Z,98355.15
2023-03-16T10:33:09.160Z,98352.62
2023-03-16T10:34:07.198Z,98351.08
2023-03-16T10:35:07.245Z,98357.91
2023-03-16T10:36:07.404Z,98363.19
2023-03-16T10:37:07.345Z,98358.08
2023-03-16T10:38:07.405Z,98364.44
2023-03-16T10:39:07.468Z,98360.82
2023-03-16T10:40:07.516Z,98355.17
2023-03-16T10:41:07.566Z,98353.38
2023-03-16T10:42:09.664Z,98356.13
2023-03-16T10:43:07.675Z,98356.73
2023-03-16T10:44:08.708Z,98353.19
2023-03-16T10:45:07.686Z,98350.11
2023-03-16T10:46:07.743Z,98357.48
2023-03-16T10:47:07.803Z,98348.66
2023-03-16T10:48:07.792Z,98351.05
2023-03-16T10:49:07.855Z,98345.13
2023-03-16T10:50:07.883Z,98342.08
2023-03-16T10:51:07.916Z,98341.24
2023-03-16T10:52:07.952Z,98339.97
2023-03-16T10:53:08.004Z,98338.12
2023-03-16T10:54:08.169Z,98332.78
2023-03-16T10:55:08.143Z,98330.89
2023-03-16T10:56:08.174Z,98342.56
2023-03-16T10:57:08.194Z,98328.75
2023-03-16T10:58:08.256Z,98325.19
2023-03-16T10:59:08.294Z,98334.06
2023-03-16T11:00:08.353Z,98327.77
2023-03-16T11:01:08.406Z,98327.86
2023-03-16T11:02:08.454Z,98326.73
2023-03-16T11:03:08.466Z,98324.10
2023-03-16T11:04:08.517Z,98321.19
2023-03-16T11:05:08.526Z,98315.95
2023-03-16T11:06:08.681Z,98318.33
2023-03-16T11:07:08.587Z,98318.62
2023-03-16T11:08:08.696Z,98321.92
2023-03-16T11:09:08.652Z,98311.81
2023-03-16T11:10:08.628Z,98313.90
2023-03-16T11:11:08.661Z,98319.03
2023-03-16T11:12:08.737Z,98314.77
2023-03-16T11:13:08.789Z,98319.33
2023-03-16T11:14:08.820Z,98310.77
2023-03-16T11:15:16.779Z,98314.94
2023-03-16T11:16:08.879Z,98322.56
2023-03-16T11:17:08.920Z,98323.25
2023-03-16T11:18:08.922Z,98315.94
2023-03-16T11:19:08.950Z,98314.20
2023-03-16T11:20:08.958Z,98316.96
2023-03-16T11:21:08.991Z,98315.13
2023-03-16T11:22:09.020Z,98321.40
2023-03-16T11:23:09.036Z,98320.56
2023-03-16T11:24:09.082Z,98323.73
2023-03-16T11:25:09.092Z,98329.23
2023-03-16T11:26:09.100Z,98333.17
2023-03-16T11:27:09.111Z,98325.67
2023-03-16T11:28:09.122Z,98327.87
2023-03-16T11:29:09.159Z,98320.02
2023-03-16T11:30:09.184Z,98318.90
2023-03-16T11:31:09.254Z,98312.82
2023-03-16T11:32:09.236Z,98303.40
2023-03-16T11:33:09.300Z,98304.50
2023-03-16T11:34:09.303Z,98300.69
2023-03-16T11:35:09.313Z,98306.30
2023-03-16T11:36:09.745Z,98306.74
2023-03-16T11:37:09.613Z,98311.33
2023-03-16T11:38:09.772Z,98304.11
2023-03-16T11:39:10.030Z,98303.43
2023-03-16T11:40:09.554Z,98305.98
2023-03-16T11:41:09.484Z,98308.76
2023-03-16T11:42:09.494Z,98316.02
2023-03-16T11:43:09.506Z,98312.95
2023-03-16T11:44:09.574Z,98307.22
2023-03-16T11:45:09.597Z,98308.94